Time;durP1;ratioP1;P1;durP2;ratioP2;P2;SDS_P1;SDS_P2;PMS_P1;PMS_P2;Temp;Humidity;BMP_temperature;BMP_pressure;BME280_temperature;BME280_humidity;BME280_pressure;Samples;Min_cycle;Max_cycle;Signal;HPM_P1;HPM_P2
2022/05/26 00:00:42;;;;;;;5.70;4.20;;;;;;;16.01;44.55;100563.30;117131;1185;24199;-55
2022/05/26 00:03:08;;;;;;;7.20;3.80;;;;;;;16.02;44.61;100563.78;117083;1187;21884;-48
2022/05/26 00:05:35;;;;;;;5.60;3.90;;;;;;;16.01;44.53;100562.39;117282;1182;24207;-48
2022/05/26 00:08:02;;;;;;;8.10;4.50;;;;;;;16.03;44.58;100561.81;117299;1185;23052;-56
2022/05/26 00:10:29;;;;;;;7.10;4.60;;;;;;;16.05;44.53;100565.99;117371;1186;23454;-48
2022/05/26 00:12:56;;;;;;;5.10;4.00;;;;;;;16.06;44.59;100568.27;117334;1186;22094;-49
2022/05/26 00:15:23;;;;;;;6.80;4.10;;;;;;;16.05;44.73;100581.04;117362;1186;24243;-53
2022/05/26 00:17:50;;;;;;;7.30;4.10;;;;;;;16.03;44.75;100588.70;117334;1183;23619;-48
2022/05/26 00:20:17;;;;;;;5.50;4.00;;;;;;;16.04;44.86;100589.73;117379;1183;23432;-55
2022/05/26 00:22:44;;;;;;;4.60;4.10;;;;;;;16.05;44.91;100591.85;117308;1181;22988;-55
2022/05/26 00:25:11;;;;;;;5.50;3.80;;;;;;;16.07;44.87;100587.02;117305;1185;22974;-56
2022/05/26 00:27:38;;;;;;;5.60;4.10;;;;;;;16.08;44.91;100584.30;117351;1181;22084;-50
2022/05/26 00:30:06;;;;;;;4.60;3.30;;;;;;;16.08;44.98;100585.73;117359;1183;23426;-55
2022/05/26 00:32:33;;;;;;;4.80;3.90;;;;;;;16.08;45.02;100584.14;117380;1186;23637;-56
2022/05/26 00:35:00;;;;;;;8.70;4.20;;;;;;;16.10;44.96;100582.84;117355;1183;24170;-53
2022/05/26 00:37:27;;;;;;;5.40;4.10;;;;;;;16.12;45.10;100581.34;117436;1183;23651;-48
2022/05/26 00:39:54;;;;;;;5.30;4.50;;;;;;;16.15;45.13;100587.09;117334;1185;23668;-55
2022/05/26 00:42:21;;;;;;;6.20;4.20;;;;;;;16.18;45.09;100582.38;117269;1183;23054;-48
2022/05/26 00:44:50;;;;;;;5.00;4.30;;;;;;;16.23;45.15;100586.12;117256;1185;23678;-48
2022/05/26 00:47:19;;;;;;;7.50;4.30;;;;;;;16.28;45.11;100578.17;117367;1185;23683;-49
2022/05/26 00:49:56;;;;;;;7.60;4.20;;;;;;;16.32;45.17;100567.96;117422;1183;22978;-49
2022/05/26 00:52:26;;;;;;;7.40;4.20;;;;;;;16.37;45.08;100564.24;117284;1185;23476;-55
2022/05/26 00:54:53;;;;;;;6.20;4.20;;;;;;;16.40;45.19;100564.67;117334;1186;22919;-55
2022/05/26 00:57:28;;;;;;;5.70;4.00;;;;;;;16.42;45.17;100579.85;117209;1182;22623;-55
2022/05/26 00:59:54;;;;;;;5.80;4.20;;;;;;;16.42;45.28;100592.95;117333;1184;21874;-49
2022/05/26 01:02:25;;;;;;;5.40;4.50;;;;;;;16.42;45.31;100606.21;117142;1186;23049;-48
2022/05/26 01:04:57;;;;;;;4.50;3.80;;;;;;;16.44;45.30;100611.65;117340;1185;22916;-56
2022/05/26 01:07:26;;;;;;;6.00;4.30;;;;;;;16.45;45.36;100598.87;117280;1182;23663;-48
2022/05/26 01:09:53;;;;;;;7.10;4.40;;;;;;;16.46;45.37;100584.15;117346;1182;23700;-56
2022/05/26 01:12:20;;;;;;;9.10;4.70;;;;;;;16.47;45.35;100580.90;117355;1186;21920;-49
2022/05/26 01:14:52;;;;;;;6.10;4.50;;;;;;;16.49;45.46;100576.95;117305;1185;21947;-56
2022/05/26 01:17:43;;;;;;;6.30;4.10;;;;;;;16.52;45.40;100576.52;117337;1183;23489;-56
2022/05/26 01:20:14;;;;;;;5.70;4.20;;;;;;;16.55;45.37;100574.27;117314;1185;23463;-56
2022/05/26 01:23:09;;;;;;;5.50;4.10;;;;;;;16.54;45.37;100572.70;117011;1189;23563;-48
2022/05/26 01:25:40;;;;;;;5.70;3.90;;;;;;;16.54;45.43;100572.37;117340;1185;24160;-48
2022/05/26 01:28:31;;;;;;;7.70;3.60;;;;;;;16.54;45.38;100581.56;117289;1183;24225;-48
2022/05/26 01:31:04;;;;;;;5.00;3.90;;;;;;;16.53;45.48;100581.08;117288;1182;22111;-56
2022/05/26 01:33:56;;;;;;;5.40;4.10;;;;;;;16.51;45.35;100577.77;117089;1186;23443;-48
2022/05/26 01:36:36;;;;;;;7.20;4.60;;;;;;;16.49;45.47;100578.02;117140;1183;24291;-48
2022/05/26 01:39:12;;;;;;;5.60;3.90;;;;;;;16.47;45.37;100575.79;117342;1185;22959;-55
2022/05/26 01:41:56;;;;;;;7.10;4.90;;;;;;;16.44;45.46;100570.20;117353;1180;22914;-56
2022/05/26 01:44:39;;;;;;;6.90;4.70;;;;;;;16.41;45.43;100566.21;117348;1186;23618;-49
2022/05/26 01:47:10;;;;;;;9.10;4.30;;;;;;;16.39;45.58;100557.27;117292;1185;22495;-55
2022/05/26 01:49:43;;;;;;;6.70;4.60;;;;;;;16.38;45.53;100557.48;117328;1181;22962;-48
2022/05/26 01:52:16;;;;;;;6.00;4.90;;;;;;;16.39;45.56;100555.33;117351;1182;21842;-49
2022/05/26 01:54:49;;;;;;;6.20;4.20;;;;;;;16.40;45.65;100551.39;117368;1179;22988;-49
2022/05/26 01:57:22;;;;;;;7.00;4.80;;;;;;;16.43;45.68;100547.59;117346;1182;22953;-49
2022/05/26 01:59:52;;;;;;;6.10;4.40;;;;;;;16.46;45.72;100543.94;117330;1186;21850;-56
2022/05/26 02:02:22;;;;;;;5.40;4.00;;;;;;;16.50;45.78;100546.83;117353;1186;22929;-55
2022/05/26 02:04:52;;;;;;;7.00;4.70;;;;;;;16.52;45.83;100541.96;117414;1183;21832;-48
2022/05/26 02:07:42;;;;;;;6.70;4.60;;;;;;;16.51;45.87;100537.74;117427;1185;23472;-49
2022/05/26 02:10:14;;;;;;;8.50;4.50;;;;;;;16.50;45.95;100542.55;117426;1185;22930;-55
2022/05/26 02:12:55;;;;;;;8.60;5.00;;;;;;;16.48;45.89;100538.73;117432;1186;23462;-56
2022/05/26 02:15:43;;;;;;;6.10;4.50;;;;;;;16.46;45.92;100529.94;117367;1186;21850;-55
2022/05/26 02:18:15;;;;;;;7.20;4.50;;;;;;;16.45;45.98;100525.91;117361;1186;21852;-48
2022/05/26 02:20:52;;;;;;;5.90;4.70;;;;;;;16.42;46.00;100521.94;117377;1182;23686;-56
2022/05/26 02:23:44;;;;;;;7.00;4.60;;;;;;;16.42;45.98;100520.69;117315;1185;22291;-48
2022/05/26 02:26:13;;;;;;;6.20;4.50;;;;;;;16.43;46.09;100519.77;117265;1185;23341;-56
2022/05/26 02:31:27;;;;;;;6.90;4.90;;;;;;;16.43;46.13;100505.77;117395;1184;22986;-48
2022/05/26 02:33:55;;;;;;;7.60;4.80;;;;;;;16.43;46.21;100501.00;117239;1185;22981;-48
2022/05/26 02:36:22;;;;;;;6.40;4.30;;;;;;;16.44;46.23;100503.27;117388;1186;21890;-56
2022/05/26 02:38:49;;;;;;;5.30;4.00;;;;;;;16.45;46.26;100501.27;117085;1186;23488;-49
2022/05/26 02:41:16;;;;;;;8.50;4.60;;;;;;;16.47;46.19;100502.61;117182;1186;23692;-48
2022/05/26 02:43:43;;;;;;;7.50;4.70;;;;;;;16.53;46.12;100502.80;117131;1186;22925;-48
2022/05/26 02:46:37;;;;;;;7.50;4.60;;;;;;;16.53;46.15;100496.05;117219;1183;23697;-56
2022/05/26 02:49:32;;;;;;;8.70;4.80;;;;;;;16.51;46.33;100501.44;117254;1185;23440;-56
2022/05/26 02:51:59;;;;;;;7.70;4.50;;;;;;;16.52;46.22;100498.77;117132;1185;24156;-56
2022/05/26 02:55:00;;;;;;;6.50;4.90;;;;;;;16.51;46.23;100489.75;117322;1185;23851;-49
2022/05/26 02:57:37;;;;;;;6.10;4.60;;;;;;;16.54;46.27;100479.20;117359;1183;23547;-56
2022/05/26 03:00:16;;;;;;;6.60;4.60;;;;;;;16.55;46.20;100477.39;117230;1185;22166;-55
2022/05/26 03:03:09;;;;;;;6.50;4.30;;;;;;;16.54;46.34;100476.73;117134;1180;23621;-55
2022/05/26 03:05:57;;;;;;;6.70;4.80;;;;;;;16.57;46.52;100474.48;117292;1186;22312;-55
2022/05/26 03:08:25;;;;;;;7.20;4.90;;;;;;;16.61;46.81;100469.73;117120;1186;22492;-55
2022/05/26 03:10:52;;;;;;;6.90;4.30;;;;;;;16.68;46.81;100470.91;117222;1185;21868;-55
2022/05/26 03:13:19;;;;;;;7.00;4.90;;;;;;;16.76;46.80;100467.27;117241;1185;23471;-55
2022/05/26 03:15:46;;;;;;;7.20;5.30;;;;;;;16.83;47.05;100473.71;117252;1187;21938;-49
2022/05/26 03:18:13;;;;;;;5.80;4.30;;;;;;;16.88;47.03;100478.31;117008;1187;23697;-49
2022/05/26 03:20:40;;;;;;;7.90;4.50;;;;;;;16.93;47.26;100482.56;117275;1183;22923;-55
2022/05/26 03:23:07;;;;;;;9.50;4.80;;;;;;;16.99;47.20;100479.73;117263;1185;21850;-55
2022/05/26 03:25:34;;;;;;;6.70;4.60;;;;;;;17.05;47.20;100482.33;117308;1185;23533;-55
2022/05/26 03:28:02;;;;;;;8.30;4.60;;;;;;;17.12;47.09;100476.91;117178;1186;21858;-56
2022/05/26 03:30:29;;;;;;;7.10;4.70;;;;;;;17.21;47.19;100470.91;117260;1184;23440;-49
2022/05/26 03:32:56;;;;;;;5.20;4.20;;;;;;;17.28;47.23;100469.21;117269;1186;22983;-56
2022/05/26 03:40:57;;;;;;;6.20;3.80;;;;;;;17.57;47.53;100459.78;117284;1185;23020;-57
2022/05/26 03:43:28;;;;;;;5.10;3.60;;;;;;;17.65;47.51;100458.89;117335;1185;21853;-50
2022/05/26 03:46:00;;;;;;;6.10;4.10;;;;;;;17.75;47.80;100454.79;117271;1186;21883;-50
2022/05/26 03:48:27;;;;;;;6.80;3.50;;;;;;;17.84;47.92;100454.39;117346;1186;22920;-50
2022/05/26 03:50:55;;;;;;;6.80;3.50;;;;;;;17.92;47.80;100452.30;117354;1185;23641;-50
2022/05/26 03:53:21;;;;;;;4.90;3.40;;;;;;;18.02;47.68;100451.77;117343;1182;23576;-56
2022/05/26 03:55:48;;;;;;;4.30;2.90;;;;;;;18.10;47.91;100440.74;117232;1185;23679;-56
2022/05/26 03:58:17;;;;;;;5.80;3.60;;;;;;;18.18;47.84;100438.63;117169;1187;21880;-51
2022/05/26 04:00:43;;;;;;;6.30;3.40;;;;;;;18.26;47.63;100438.13;117280;1187;21840;-50
2022/05/26 04:03:10;;;;;;;5.10;3.10;;;;;;;18.35;47.85;100433.13;117099;1187;24147;-52
2022/05/26 04:05:37;;;;;;;5.20;2.90;;;;;;;18.44;47.81;100428.80;117065;1187;21850;-51
2022/05/26 04:08:05;;;;;;;4.70;3.00;;;;;;;18.53;48.47;100428.24;117343;1186;23438;-50
2022/05/26 04:10:31;;;;;;;5.20;2.10;;;;;;;18.60;47.92;100429.69;117115;1188;21852;-51
2022/05/26 04:12:58;;;;;;;6.30;2.70;;;;;;;18.68;48.03;100428.79;117243;1186;22815;-56
2022/05/26 04:15:25;;;;;;;6.30;1.90;;;;;;;18.77;48.23;100434.27;117297;1185;21849;-56
2022/05/26 04:17:52;;;;;;;4.40;2.10;;;;;;;18.83;48.15;100434.19;117189;1186;22620;-57
2022/05/26 04:20:20;;;;;;;6.80;2.50;;;;;;;18.88;47.90;100432.86;117299;1183;23641;-56
2022/05/26 04:22:47;;;;;;;4.60;2.20;;;;;;;18.96;48.02;100437.52;117305;1184;22887;-51
2022/05/26 04:25:14;;;;;;;5.00;2.20;;;;;;;19.02;47.82;100434.39;117219;1184;23439;-51
2022/05/26 04:27:41;;;;;;;5.30;2.10;;;;;;;19.06;47.83;100430.65;117257;1185;21856;-56
2022/05/26 04:30:09;;;;;;;3.50;2.00;;;;;;;19.08;48.35;100430.21;117092;1186;22907;-51
2022/05/26 04:32:36;;;;;;;4.40;1.90;;;;;;;19.07;47.81;100423.51;117140;1184;23483;-57
2022/05/26 04:35:04;;;;;;;3.40;1.70;;;;;;;19.08;47.82;100419.90;117005;1186;21895;-56
2022/05/26 04:37:31;;;;;;;3.80;1.90;;;;;;;19.13;48.01;100420.92;117035;1186;23946;-51
2022/05/26 04:39:59;;;;;;;4.00;1.90;;;;;;;19.21;48.04;100421.23;117298;1185;22964;-51
2022/05/26 04:42:26;;;;;;;6.10;1.70;;;;;;;19.35;48.25;100431.64;117225;1188;23557;-55
2022/05/26 04:44:53;;;;;;;3.50;1.70;;;;;;;19.49;48.50;100442.15;117328;1188;23553;-57
2022/05/26 04:47:20;;;;;;;3.60;1.90;;;;;;;19.64;48.71;100452.83;117258;1186;23569;-57
2022/05/26 04:49:47;;;;;;;4.60;1.70;;;;;;;19.76;48.90;100471.98;117310;1182;23549;-52
2022/05/26 04:52:18;;;;;;;3.60;1.40;;;;;;;19.91;48.59;100481.42;117094;1186;21854;-51
2022/05/26 04:54:45;;;;;;;7.00;1.70;;;;;;;20.08;48.39;100493.04;117277;1186;21896;-57
2022/05/26 04:57:13;;;;;;;5.30;1.50;;;;;;;20.19;48.62;100498.76;117014;1188;21854;-57
2022/05/26 04:59:40;;;;;;;4.50;1.60;;;;;;;20.21;48.36;100501.52;117397;1185;21964;-57
2022/05/26 05:02:14;;;;;;;4.80;1.50;;;;;;;20.22;48.08;100505.55;117127;1184;23541;-51
2022/05/26 05:04:42;;;;;;;3.60;1.50;;;;;;;20.22;47.82;100505.00;117011;1187;23605;-52
2022/05/26 05:07:09;;;;;;;5.90;1.70;;;;;;;20.20;48.00;100509.17;117336;1181;21849;-56
2022/05/26 05:09:38;;;;;;;4.00;1.30;;;;;;;20.13;47.69;100513.45;117314;1186;21965;-52
2022/05/26 05:12:08;;;;;;;6.50;1.70;;;;;;;20.05;47.60;100525.97;117284;1182;23499;-52
2022/05/26 05:14:38;;;;;;;4.20;1.50;;;;;;;19.97;47.44;100531.02;117902;1180;22938;-52
2022/05/26 05:17:05;;;;;;;3.10;1.20;;;;;;;19.88;47.34;100529.13;117222;1185;21933;-53
2022/05/26 05:19:32;;;;;;;4.10;1.90;;;;;;;19.79;47.69;100526.49;117065;1187;21898;-52
2022/05/26 05:22:06;;;;;;;5.00;1.50;;;;;;;19.70;47.80;100511.45;117719;1187;21875;-56
2022/05/26 05:24:48;;;;;;;4.80;1.50;;;;;;;19.64;47.43;100507.86;117342;1188;21858;-56
2022/05/26 05:27:30;;;;;;;5.20;1.80;;;;;;;19.63;47.56;100506.29;117204;1187;22830;-56
2022/05/26 05:29:59;;;;;;;9.40;2.00;;;;;;;19.65;47.75;100495.84;117214;1185;24152;-57
2022/05/26 05:32:39;;;;;;;4.00;1.60;;;;;;;19.70;47.71;100494.89;117101;1189;21860;-54
2022/05/26 05:35:08;;;;;;;5.30;1.80;;;;;;;19.77;47.92;100488.14;117333;1186;21856;-54
2022/05/26 05:37:35;;;;;;;3.20;1.60;;;;;;;19.84;47.95;100473.73;117313;1187;21915;-53
2022/05/26 05:40:03;;;;;;;4.20;1.40;;;;;;;19.92;48.61;100474.44;117095;1182;23563;-56
2022/05/26 05:42:30;;;;;;;4.90;2.00;;;;;;;19.99;48.21;100469.30;117170;1187;24268;-56
2022/05/26 05:44:58;;;;;;;5.70;1.70;;;;;;;20.09;48.11;100465.05;117122;1186;24604;-56
2022/05/26 05:47:25;;;;;;;3.50;1.50;;;;;;;20.22;48.14;100472.27;117305;1185;21865;-58
2022/05/26 05:49:52;;;;;;;12.70;2.70;;;;;;;20.33;47.96;100460.80;117381;1185;21851;-57
2022/05/26 05:52:21;;;;;;;4.60;1.50;;;;;;;20.48;47.97;100462.70;117306;1184;22936;-52
2022/05/26 05:54:48;;;;;;;2.20;1.10;;;;;;;20.62;47.77;100457.89;117295;1187;23631;-55
2022/05/26 05:57:15;;;;;;;3.90;1.10;;;;;;;20.79;47.63;100447.36;117308;1185;23545;-51
2022/05/26 05:59:43;;;;;;;4.00;1.80;;;;;;;20.96;47.62;100442.69;117312;1187;23081;-49
2022/05/26 06:02:11;;;;;;;5.10;1.60;;;;;;;21.16;47.63;100440.52;117286;1186;23542;-51
2022/05/26 06:04:58;;;;;;;4.70;1.50;;;;;;;21.40;47.53;100438.33;117283;1185;21862;-50
2022/05/26 06:07:25;;;;;;;7.00;1.30;;;;;;;21.57;47.29;100441.83;117302;1186;21888;-54
2022/05/26 06:09:52;;;;;;;3.90;1.30;;;;;;;21.67;47.08;100440.91;117355;1188;23568;-56
2022/05/26 06:12:21;;;;;;;7.70;1.60;;;;;;;21.71;46.83;100435.73;117273;1185;21896;-51
2022/05/26 06:14:49;;;;;;;5.40;1.50;;;;;;;21.69;46.74;100435.43;117402;1185;23572;-55
2022/05/26 06:17:16;;;;;;;4.50;1.40;;;;;;;21.68;46.63;100433.91;117296;1186;23542;-55
2022/05/26 06:19:43;;;;;;;2.90;1.60;;;;;;;21.62;46.39;100434.95;117075;1188;22376;-54
2022/05/26 06:22:17;;;;;;;5.50;1.30;;;;;;;21.54;46.31;100436.99;117307;1185;22936;-55
2022/05/26 06:24:45;;;;;;;2.30;1.40;;;;;;;21.45;46.35;100431.05;117372;1185;21839;-51
2022/05/26 06:30:13;;;;;;;6.40;1.50;;;;;;;21.33;46.06;100435.34;117292;1185;21854;-56
2022/05/26 06:38:23;;;;;;;3.40;1.50;;;;;;;20.87;46.00;100437.11;117223;1185;21868;-56
2022/05/26 06:40:51;;;;;;;3.50;1.60;;;;;;;20.75;45.87;100438.86;117088;1187;21874;-54
2022/05/26 06:43:19;;;;;;;4.10;1.40;;;;;;;20.64;45.85;100442.79;117153;1185;22097;-51
2022/05/26 06:45:47;;;;;;;2.80;1.80;;;;;;;20.57;45.91;100446.20;117234;1182;23008;-55
2022/05/26 06:48:15;;;;;;;3.50;1.80;;;;;;;20.44;45.84;100446.50;117305;1180;22955;-55
2022/05/26 06:50:43;;;;;;;5.20;2.30;;;;;;;20.26;45.87;100444.95;117094;1186;21916;-55
2022/05/26 06:53:10;;;;;;;4.10;1.90;;;;;;;20.10;45.84;100448.06;117094;1187;22826;-51
2022/05/26 06:55:37;;;;;;;4.30;1.80;;;;;;;19.96;46.02;100451.08;117179;1186;21884;-49
2022/05/26 06:58:04;;;;;;;3.20;2.10;;;;;;;19.82;45.96;100449.61;117279;1187;22955;-49
2022/05/26 07:00:31;;;;;;;3.40;2.00;;;;;;;19.69;45.97;100445.43;117243;1186;22653;-49
2022/05/26 07:02:59;;;;;;;2.70;1.80;;;;;;;19.54;46.02;100451.90;117074;1183;22749;-49
2022/05/26 07:05:25;;;;;;;5.70;2.20;;;;;;;19.44;46.12;100452.17;117070;1186;21851;-49
2022/05/26 07:07:54;;;;;;;3.20;2.10;;;;;;;19.36;46.24;100444.73;117237;1182;22936;-49
2022/05/26 07:10:22;;;;;;;5.50;2.10;;;;;;;19.29;46.25;100445.06;117248;1186;23347;-50
2022/05/26 07:12:49;;;;;;;4.50;2.10;;;;;;;19.22;46.30;100437.41;117194;1186;22086;-49
2022/05/26 07:15:16;;;;;;;3.20;2.20;;;;;;;19.15;46.30;100436.64;117053;1183;22919;-49
2022/05/26 07:17:45;;;;;;;6.80;2.70;;;;;;;19.07;46.35;100435.27;117045;1186;23519;-55
2022/05/26 07:20:12;;;;;;;4.40;2.50;;;;;;;18.98;46.30;100426.06;117237;1186;22642;-55
2022/05/26 07:22:39;;;;;;;5.10;3.00;;;;;;;18.90;46.45;100421.23;117330;1186;21861;-55
2022/05/26 07:25:08;;;;;;;5.90;2.40;;;;;;;18.83;46.42;100416.23;117299;1185;22919;-55
2022/05/26 07:27:35;;;;;;;4.40;2.80;;;;;;;18.84;46.64;100408.70;117332;1189;23544;-55
2022/05/26 07:30:03;;;;;;;5.10;2.60;;;;;;;18.86;46.64;100413.22;117373;1185;22879;-55
2022/05/26 07:32:30;;;;;;;7.10;2.50;;;;;;;18.86;46.77;100422.99;117240;1188;22309;-55
2022/05/26 07:34:58;;;;;;;7.60;3.10;;;;;;;18.87;46.83;100417.45;117074;1187;23549;-50
2022/05/26 07:42:58;;;;;;;6.40;3.20;;;;;;;18.89;46.92;100384.13;116982;1182;23867;-55
2022/05/26 07:45:25;;;;;;;6.30;3.00;;;;;;;18.88;47.02;100383.98;117085;1189;23469;-55
2022/05/26 07:47:52;;;;;;;6.80;3.20;;;;;;;18.87;47.14;100386.01;117069;1186;23547;-54
2022/05/26 07:50:21;;;;;;;8.10;3.30;;;;;;;18.87;47.11;100390.27;117025;1188;21884;-54
2022/05/26 07:52:49;;;;;;;5.80;3.30;;;;;;;18.88;47.18;100411.92;117049;1187;21854;-55
2022/05/26 07:55:18;;;;;;;4.80;2.90;;;;;;;18.88;47.19;100433.58;117265;1185;21853;-55
2022/05/26 07:57:45;;;;;;;5.60;3.40;;;;;;;18.87;47.23;100462.61;117191;1186;24256;-56
2022/05/26 08:00:13;;;;;;;7.30;3.30;;;;;;;18.82;47.13;100474.40;117386;1180;22937;-50
2022/05/26 08:02:40;;;;;;;6.00;3.40;;;;;;;18.71;47.16;100475.79;117117;1189;21983;-51
2022/05/26 08:05:09;;;;;;;6.00;3.10;;;;;;;18.64;47.25;100482.48;117107;1186;23467;-55
2022/05/26 08:07:35;;;;;;;8.90;3.40;;;;;;;18.62;47.34;100487.56;116904;1186;24174;-50
2022/05/26 08:10:03;;;;;;;5.10;3.70;;;;;;;18.59;47.33;100500.48;117100;1188;22993;-51
2022/05/26 08:12:30;;;;;;;6.40;3.60;;;;;;;18.57;47.43;100507.68;117023;1187;23559;-50
2022/05/26 08:14:56;;;;;;;6.50;3.80;;;;;;;18.54;47.53;100516.13;117010;1191;22010;-55
2022/05/26 08:17:24;;;;;;;6.80;4.30;;;;;;;18.56;47.58;100524.06;117010;1185;23563;-54
2022/05/26 08:19:51;;;;;;;4.90;3.60;;;;;;;18.56;47.63;100526.20;116980;1186;24176;-54
2022/05/26 08:22:19;;;;;;;7.90;4.50;;;;;;;18.51;47.74;100533.34;117148;1186;23902;-50
2022/05/26 08:24:52;;;;;;;6.70;3.90;;;;;;;18.49;47.95;100536.45;117089;1183;23573;-55
2022/05/26 08:27:19;;;;;;;6.70;4.70;;;;;;;18.46;48.02;100541.02;117222;1186;22126;-55
2022/05/26 08:29:46;;;;;;;5.90;4.00;;;;;;;18.41;48.00;100543.70;117133;1186;21856;-55
2022/05/26 08:32:18;;;;;;;6.70;4.30;;;;;;;18.40;48.28;100547.46;117259;1186;21846;-54
2022/05/26 08:34:45;;;;;;;6.20;4.60;;;;;;;18.38;48.32;100543.98;116958;1187;22991;-50
2022/05/26 08:37:17;;;;;;;6.80;4.50;;;;;;;18.35;48.78;100546.06;117136;1187;22639;-51
2022/05/26 08:39:44;;;;;;;5.80;4.20;;;;;;;18.29;48.54;100543.66;117282;1185;23675;-49
2022/05/26 08:42:18;;;;;;;6.20;4.20;;;;;;;18.27;48.57;100548.18;117283;1186;21856;-54
2022/05/26 08:44:44;;;;;;;6.20;4.80;;;;;;;18.27;48.60;100549.61;117099;1186;21857;-55
2022/05/26 08:47:14;;;;;;;5.80;4.60;;;;;;;18.31;48.74;100553.00;117106;1187;21850;-55
2022/05/26 08:50:08;;;;;;;7.80;4.80;;;;;;;18.34;48.80;100549.48;117312;1186;22931;-54
2022/05/26 08:52:40;;;;;;;7.50;5.60;;;;;;;18.37;48.85;100554.51;117306;1186;21854;-49
2022/05/26 08:55:33;;;;;;;8.90;5.40;;;;;;;18.39;49.03;100556.38;117132;1188;22992;-55
2022/05/26 08:58:09;;;;;;;8.20;5.40;;;;;;;18.42;48.97;100561.41;117275;1188;21963;-50
2022/05/26 09:00:37;;;;;;;7.60;5.60;;;;;;;18.47;49.11;100568.35;117111;1186;24259;-55
2022/05/26 09:03:23;;;;;;;6.60;5.20;;;;;;;18.51;48.93;100574.92;117324;1184;21981;-55
2022/05/26 09:06:19;;;;;;;8.50;5.40;;;;;;;18.54;49.09;100573.88;117203;1184;22103;-55
2022/05/26 09:14:38;;;;;;;6.30;5.50;;;;;;;18.70;49.30;100589.92;117157;1185;21864;-50
2022/05/26 09:17:07;;;;;;;8.30;5.80;;;;;;;18.72;49.58;100584.70;117175;1185;22917;-55
2022/05/26 09:19:43;;;;;;;8.30;5.90;;;;;;;18.76;49.48;100580.79;117404;1185;23471;-55
2022/05/26 09:22:39;;;;;;;10.00;5.90;;;;;;;18.85;49.47;100582.71;117060;1183;23641;-51
2022/05/26 09:25:11;;;;;;;8.10;6.00;;;;;;;18.92;49.58;100583.45;117212;1183;21849;-50
2022/05/26 09:27:38;;;;;;;9.10;5.70;;;;;;;18.99;49.56;100580.72;117324;1186;22955;-55
2022/05/26 09:30:23;;;;;;;6.40;5.30;;;;;;;19.07;49.76;100575.55;117285;1186;22904;-55
2022/05/26 09:32:49;;;;;;;11.10;6.90;;;;;;;19.19;49.64;100567.73;117147;1182;21844;-50
2022/05/26 09:35:23;;;;;;;8.10;6.10;;;;;;;19.30;49.74;100561.17;117150;1185;21897;-56
2022/05/26 09:37:55;;;;;;;8.20;5.60;;;;;;;19.36;49.69;100561.79;117204;1186;23545;-50
2022/05/26 09:40:26;;;;;;;6.40;5.70;;;;;;;19.39;49.68;100567.02;117216;1183;23355;-55
2022/05/26 09:42:59;;;;;;;7.50;5.90;;;;;;;19.40;49.60;100577.46;117325;1182;21990;-49
2022/05/26 09:45:41;;;;;;;8.30;5.50;;;;;;;19.43;49.62;100590.48;117294;1189;21955;-49
2022/05/26 09:48:17;;;;;;;8.20;5.40;;;;;;;19.40;49.51;100588.33;117233;1186;23461;-55
2022/05/26 09:50:49;;;;;;;7.40;5.90;;;;;;;19.39;49.60;100593.86;117074;1186;22974;-55
2022/05/26 09:53:27;;;;;;;7.30;6.20;;;;;;;19.47;49.70;100591.02;117167;1182;21853;-49
2022/05/26 09:55:55;;;;;;;6.70;5.60;;;;;;;19.59;49.81;100599.19;117293;1183;22911;-49
2022/05/26 09:58:28;;;;;;;9.90;6.20;;;;;;;19.67;49.83;100603.63;117188;1183;23549;-49
2022/05/26 10:01:28;;;;;;;8.20;6.00;;;;;;;19.71;49.76;100596.66;116855;1187;22056;-55
2022/05/26 10:04:13;;;;;;;6.20;5.50;;;;;;;19.79;49.74;100593.61;117250;1186;22979;-55
2022/05/26 10:06:43;;;;;;;7.40;5.50;;;;;;;19.85;49.75;100589.06;117182;1183;22462;-49
2022/05/26 10:09:34;;;;;;;10.80;5.70;;;;;;;19.85;49.63;100590.48;117212;1182;23525;-55
2022/05/26 10:12:26;;;;;;;7.60;6.10;;;;;;;19.90;49.86;100586.68;117162;1188;21857;-55
2022/05/26 10:15:28;;;;;;;6.70;5.50;;;;;;;20.00;49.81;100595.14;117154;1186;23647;-55
2022/05/26 10:18:06;;;;;;;7.40;6.10;;;;;;;20.07;49.83;100599.48;117178;1183;21850;-55
2022/05/26 10:21:06;;;;;;;7.40;6.10;;;;;;;20.18;50.00;100591.10;117224;1186;22023;-55
2022/05/26 10:23:39;;;;;;;8.70;6.30;;;;;;;20.38;50.12;100587.60;117268;1186;21914;-55
2022/05/26 10:26:30;;;;;;;9.40;5.70;;;;;;;20.57;50.13;100592.52;117186;1188;23557;-55
2022/05/26 10:29:28;;;;;;;8.10;5.90;;;;;;;20.70;49.98;100589.94;117249;1189;23547;-55
2022/05/26 10:31:58;;;;;;;6.80;5.60;;;;;;;20.72;49.84;100589.80;117191;1181;23543;-55
2022/05/26 10:34:47;;;;;;;6.50;5.40;;;;;;;20.71;49.74;100595.42;117170;1189;21853;-56
2022/05/26 10:37:30;;;;;;;6.80;5.50;;;;;;;20.65;49.67;100598.90;117168;1185;21843;-55
2022/05/26 10:40:03;;;;;;;8.10;5.40;;;;;;;20.61;49.71;100598.89;117188;1183;21974;-50
2022/05/26 10:42:34;;;;;;;9.50;5.90;;;;;;;20.59;49.75;100603.45;117695;1184;21853;-54
2022/05/26 10:45:43;;;;;;;8.20;6.10;;;;;;;20.59;49.61;100602.94;117231;1186;22992;-50
2022/05/26 10:48:35;;;;;;;7.60;5.80;;;;;;;20.59;49.64;100603.33;116969;1186;23637;-50
2022/05/26 10:51:17;;;;;;;7.30;5.70;;;;;;;20.55;49.68;100601.73;116916;1186;21998;-50
2022/05/26 10:54:09;;;;;;;8.00;6.20;;;;;;;20.54;49.66;100606.08;117188;1186;23689;-48
2022/05/26 10:56:50;;;;;;;7.40;6.10;;;;;;;20.51;49.60;100603.54;117309;1186;21899;-49
2022/05/26 10:59:27;;;;;;;11.30;6.20;;;;;;;20.47;49.58;100608.35;117094;1186;22811;-48
2022/05/26 11:02:06;;;;;;;8.40;5.90;;;;;;;20.40;49.60;100612.61;116930;1188;24008;-49
2022/05/26 11:04:58;;;;;;;8.10;5.70;;;;;;;20.32;49.58;100611.23;117274;1186;22809;-49
2022/05/26 11:07:46;;;;;;;7.60;6.10;;;;;;;20.25;49.53;100612.29;116971;1187;21983;-49
2022/05/26 11:10:14;;;;;;;9.80;6.50;;;;;;;20.20;49.64;100613.96;117133;1186;21947;-49
2022/05/26 11:12:51;;;;;;;7.60;6.20;;;;;;;20.14;49.56;100612.84;117064;1182;22851;-55
2022/05/26 11:18:11;;;;;;;8.00;6.50;;;;;;;19.99;49.63;100611.95;117172;1186;21970;-50
2022/05/26 11:20:43;;;;;;;7.40;6.60;;;;;;;19.93;49.64;100611.13;117116;1185;22801;-55
2022/05/26 11:23:10;;;;;;;10.70;8.00;;;;;;;19.90;49.68;100607.55;117028;1182;21862;-55
2022/05/26 11:25:43;;;;;;;9.10;8.00;;;;;;;19.91;49.84;100607.33;117158;1186;22995;-55
2022/05/26 11:28:15;;;;;;;9.10;8.00;;;;;;;19.93;49.85;100611.16;117248;1186;22950;-50
2022/05/26 11:36:34;;;;;;;8.50;7.70;;;;;;;19.91;49.86;100609.98;117306;1183;22259;-49
2022/05/26 11:39:06;;;;;;;11.00;8.40;;;;;;;19.92;49.95;100611.90;117224;1183;21845;-55
2022/05/26 11:41:54;;;;;;;10.20;7.90;;;;;;;19.95;49.99;100616.23;117109;1182;22796;-49
2022/05/26 11:44:34;;;;;;;9.90;7.50;;;;;;;19.98;50.07;100615.91;117182;1185;24175;-50
2022/05/26 11:47:16;;;;;;;11.20;8.00;;;;;;;20.05;50.14;100612.38;117095;1182;21849;-54
2022/05/26 11:49:43;;;;;;;9.00;7.80;;;;;;;20.11;50.14;100614.41;117218;1186;23724;-53
2022/05/26 11:52:22;;;;;;;8.80;7.90;;;;;;;20.16;50.17;100613.58;117111;1186;22819;-53
2022/05/26 11:54:52;;;;;;;8.80;7.90;;;;;;;20.24;50.32;100608.95;117233;1186;21853;-48
2022/05/26 11:57:33;;;;;;;8.80;7.70;;;;;;;20.31;50.29;100604.50;117198;1182;21894;-55
2022/05/26 12:00:17;;;;;;;9.10;8.20;;;;;;;20.38;50.37;100602.73;117239;1185;23640;-49
2022/05/26 12:03:25;;;;;;;9.60;7.80;;;;;;;20.45;50.36;100596.71;117245;1186;23513;-49
2022/05/26 12:05:56;;;;;;;10.70;8.00;;;;;;;20.53;50.44;100591.65;117139;1183;23548;-55
2022/05/26 12:08:26;;;;;;;13.00;8.70;;;;;;;20.67;50.55;100592.95;117155;1188;21884;-54
2022/05/26 12:11:01;;;;;;;9.90;7.70;;;;;;;20.82;50.61;100589.16;117189;1186;21860;-54
2022/05/26 12:13:29;;;;;;;8.50;7.20;;;;;;;20.96;50.64;100587.19;117202;1181;21886;-54
2022/05/26 12:16:24;;;;;;;8.50;7.20;;;;;;;21.08;50.69;100584.04;117022;1189;22887;-54
2022/05/26 12:19:04;;;;;;;9.00;7.20;;;;;;;21.23;50.73;100583.60;117230;1185;21852;-56